This is the latest recevied weather packets stored in our database for station/object IT9RID. If no packets are shown the sender has not sent any weather packets the latest 10 day(s).
| Time | Temp. | Humidity | Pressure | Rain* | Wind** | Luminosity | Snow |
|---|---|---|---|---|---|---|---|
| 1787908054 | 33.89° C | 46% | 1017.1 hPa | 0 mm | - | - | - |
| 1787907454 | 33.33° C | 46% | 1017 hPa | 0 mm | - | - | - |
| 1787906853 | 32.78° C | 51% | 1017.1 hPa | 0 mm | - | - | - |
| 1787906253 | 32.22° C | 52% | 1017 hPa | 0 mm | - | - | - |
| 1787905653 | 32.22° C | 54% | 1017.1 hPa | 0 mm | - | - | - |
| 1787905053 | 31.67° C | 54% | 1017 hPa | 0 mm | - | - | - |
| 1787904453 | 32.22° C | 51% | 1016.9 hPa | 0 mm | - | - | - |
| 1787903853 | 31.67° C | 47% | 1016.8 hPa | 0 mm | - | - | - |
| 1787903252 | 32.22° C | 48% | 1016.8 hPa | 0 mm | - | - | - |
| 1787902652 | 32.78° C | 43% | 1016.6 hPa | 0 mm | - | - | - |
| 1787902052 | 34.44° C | 33% | 1016.5 hPa | 0 mm | - | - | - |
| 1787901452 | 34.44° C | 32% | 1016.4 hPa | 0 mm | - | - | - |
| 1787900852 | 33.33° C | 34% | 1016.5 hPa | 0 mm | - | - | - |
| 1787900252 | 32.22° C | 35% | 1016.5 hPa | 0 mm | - | - | - |
| 1787899652 | 31.67° C | 37% | 1016.5 hPa | 0 mm | - | - | - |
| 1787899051 | 30.56° C | 38% | 1016.5 hPa | 0 mm | - | - | - |
| 1787898457 | 30.56° C | 37% | 1016.5 hPa | 0 mm | - | - | - |
| 1787897851 | 30.56° C | 36% | 1016.4 hPa | 0 mm | - | - | - |
| 1787897251 | 30.56° C | 36% | 1016.4 hPa | 0 mm | - | - | - |
| 1787896651 | 29.44° C | 39% | 1016.4 hPa | 0 mm | - | - | - |
| 1787896051 | 28.89° C | 39% | 1016.5 hPa | 0 mm | - | - | - |
| 1787895451 | 28.33° C | 39% | 1016.6 hPa | 0 mm | - | - | - |
| 1787894850 | 28.33° C | 39% | 1016.4 hPa | 0 mm | - | - | - |
| 1787894250 | 28.89° C | 38% | 1016.3 hPa | 0 mm | - | - | - |
| 1787893650 | 28.89° C | 37% | 1016 hPa | 0 mm | - | - | - |
* Rain latest hour (hover to see other rain measurements)
** Current wind speed in m/s (hover to see current wind gust speed)